sensor_id;sensor_type;location;lat;lon;timestamp;pressure;altitude;pressure_sealevel;temperature;humidity
498;BME280;39559;48.630;9.162;2024-01-10T00:01:13;98275.53;;;-8.14;100.00
498;BME280;39559;48.630;9.162;2024-01-10T00:03:39;98268.31;;;-8.06;100.00
498;BME280;39559;48.630;9.162;2024-01-10T00:08:14;98265.59;;;-8.11;100.00
498;BME280;39559;48.630;9.162;2024-01-10T00:10:40;98263.75;;;-8.15;100.00
498;BME280;39559;48.630;9.162;2024-01-10T00:13:06;98274.09;;;-8.08;100.00
498;BME280;39559;48.630;9.162;2024-01-10T00:15:31;98270.78;;;-8.07;100.00
498;BME280;39559;48.630;9.162;2024-01-10T00:17:56;98269.97;;;-8.06;100.00
498;BME280;39559;48.630;9.162;2024-01-10T00:20:22;98266.84;;;-8.01;100.00
498;BME280;39559;48.630;9.162;2024-01-10T00:22:47;98272.22;;;-7.93;100.00
498;BME280;39559;48.630;9.162;2024-01-10T00:25:13;98267.31;;;-7.90;100.00
498;BME280;39559;48.630;9.162;2024-01-10T00:27:39;98266.31;;;-7.94;100.00
498;BME280;39559;48.630;9.162;2024-01-10T00:32:18;98274.19;;;-7.86;100.00
498;BME280;39559;48.630;9.162;2024-01-10T00:34:44;98263.34;;;-7.85;100.00
498;BME280;39559;48.630;9.162;2024-01-10T00:37:09;98257.53;;;-7.82;100.00
498;BME280;39559;48.630;9.162;2024-01-10T00:39:35;98260.28;;;-7.78;100.00
498;BME280;39559;48.630;9.162;2024-01-10T00:42:00;98253.50;;;-7.79;100.00
498;BME280;39559;48.630;9.162;2024-01-10T00:44:26;98254.84;;;-7.87;100.00
498;BME280;39559;48.630;9.162;2024-01-10T00:46:52;98257.09;;;-7.93;100.00
498;BME280;39559;48.630;9.162;2024-01-10T00:49:18;98255.84;;;-7.83;100.00
498;BME280;39559;48.630;9.162;2024-01-10T00:51:44;98253.78;;;-7.73;100.00
498;BME280;39559;48.630;9.162;2024-01-10T00:56:22;98257.28;;;-7.69;100.00
498;BME280;39559;48.630;9.162;2024-01-10T00:58:48;98251.63;;;-7.63;100.00
498;BME280;39559;48.630;9.162;2024-01-10T01:01:14;98248.50;;;-7.58;100.00
498;BME280;39559;48.630;9.162;2024-01-10T01:03:39;98252.91;;;-7.52;100.00
498;BME280;39559;48.630;9.162;2024-01-10T01:06:05;98251.16;;;-7.55;100.00
498;BME280;39559;48.630;9.162;2024-01-10T01:08:30;98249.63;;;-7.51;100.00
498;BME280;39559;48.630;9.162;2024-01-10T01:10:56;98243.59;;;-7.55;100.00
498;BME280;39559;48.630;9.162;2024-01-10T01:13:21;98242.97;;;-7.49;100.00
498;BME280;39559;48.630;9.162;2024-01-10T01:15:47;98245.72;;;-7.43;100.00
498;BME280;39559;48.630;9.162;2024-01-10T01:20:26;98242.78;;;-7.32;100.00
498;BME280;39559;48.630;9.162;2024-01-10T01:22:52;98246.22;;;-7.30;100.00
498;BME280;39559;48.630;9.162;2024-01-10T01:25:18;98252.31;;;-7.25;100.00
498;BME280;39559;48.630;9.162;2024-01-10T01:27:43;98248.31;;;-7.20;100.00
498;BME280;39559;48.630;9.162;2024-01-10T01:30:09;98254.22;;;-7.20;100.00
498;BME280;39559;48.630;9.162;2024-01-10T01:32:37;98252.97;;;-7.29;100.00
498;BME280;39559;48.630;9.162;2024-01-10T01:35:03;98255.91;;;-7.20;100.00
498;BME280;39559;48.630;9.162;2024-01-10T01:37:29;98251.69;;;-7.20;100.00
498;BME280;39559;48.630;9.162;2024-01-10T01:39:54;98252.56;;;-7.19;100.00
498;BME280;39559;48.630;9.162;2024-01-10T01:44:31;98259.06;;;-7.24;100.00
498;BME280;39559;48.630;9.162;2024-01-10T01:46:57;98255.50;;;-7.29;100.00
498;BME280;39559;48.630;9.162;2024-01-10T01:49:24;98255.91;;;-7.20;100.00
498;BME280;39559;48.630;9.162;2024-01-10T01:51:51;98250.66;;;-7.25;100.00
498;BME280;39559;48.630;9.162;2024-01-10T01:54:18;98256.47;;;-7.26;100.00
498;BME280;39559;48.630;9.162;2024-01-10T01:56:45;98252.97;;;-7.29;100.00
498;BME280;39559;48.630;9.162;2024-01-10T01:59:11;98256.91;;;-7.15;100.00
498;BME280;39559;48.630;9.162;2024-01-10T02:01:38;98254.34;;;-7.17;100.00
498;BME280;39559;48.630;9.162;2024-01-10T02:04:04;98247.16;;;-7.06;100.00
498;BME280;39559;48.630;9.162;2024-01-10T02:08:35;98246.50;;;-7.02;100.00
498;BME280;39559;48.630;9.162;2024-01-10T02:11:02;98243.00;;;-7.05;100.00
498;BME280;39559;48.630;9.162;2024-01-10T02:13:28;98241.84;;;-7.14;100.00
498;BME280;39559;48.630;9.162;2024-01-10T02:15:54;98244.41;;;-7.12;100.00
498;BME280;39559;48.630;9.162;2024-01-10T02:18:20;98233.47;;;-7.12;100.00
498;BME280;39559;48.630;9.162;2024-01-10T02:20:46;98240.28;;;-7.10;100.00
498;BME280;39559;48.630;9.162;2024-01-10T02:23:12;98250.53;;;-7.07;100.00
498;BME280;39559;48.630;9.162;2024-01-10T02:25:39;98243.28;;;-6.98;100.00
498;BME280;39559;48.630;9.162;2024-01-10T02:28:05;98237.50;;;-6.95;100.00
498;BME280;39559;48.630;9.162;2024-01-10T02:32:39;98234.00;;;-6.99;100.00
498;BME280;39559;48.630;9.162;2024-01-10T02:35:05;98240.00;;;-6.95;100.00
498;BME280;39559;48.630;9.162;2024-01-10T02:37:31;98241.41;;;-6.81;100.00
498;BME280;39559;48.630;9.162;2024-01-10T02:39:57;98233.91;;;-6.79;100.00
498;BME280;39559;48.630;9.162;2024-01-10T02:42:22;98227.94;;;-6.81;100.00
498;BME280;39559;48.630;9.162;2024-01-10T02:44:48;98228.06;;;-6.78;100.00
498;BME280;39559;48.630;9.162;2024-01-10T02:47:13;98229.47;;;-6.85;100.00
498;BME280;39559;48.630;9.162;2024-01-10T02:49:39;98224.84;;;-6.74;100.00
498;BME280;39559;48.630;9.162;2024-01-10T02:52:05;98226.84;;;-6.65;100.00
498;BME280;39559;48.630;9.162;2024-01-10T02:56:43;98218.63;;;-6.60;100.00
498;BME280;39559;48.630;9.162;2024-01-10T02:59:09;98222.97;;;-6.56;100.00
498;BME280;39559;48.630;9.162;2024-01-10T03:01:34;98220.47;;;-6.56;100.00
498;BME280;39559;48.630;9.162;2024-01-10T03:04:00;98221.16;;;-6.60;100.00
498;BME280;39559;48.630;9.162;2024-01-10T03:06:25;98213.56;;;-6.60;100.00
498;BME280;39559;48.630;9.162;2024-01-10T03:08:51;98218.13;;;-6.51;100.00
498;BME280;39559;48.630;9.162;2024-01-10T03:11:17;98207.69;;;-6.59;100.00
498;BME280;39559;48.630;9.162;2024-01-10T03:13:46;98201.47;;;-6.68;100.00
498;BME280;39559;48.630;9.162;2024-01-10T03:16:13;98208.25;;;-6.67;100.00
498;BME280;39559;48.630;9.162;2024-01-10T03:20:48;98207.94;;;-6.52;100.00
498;BME280;39559;48.630;9.162;2024-01-10T03:23:36;98203.03;;;-6.48;100.00
498;BME280;39559;48.630;9.162;2024-01-10T03:26:02;98193.81;;;-6.47;100.00
498;BME280;39559;48.630;9.162;2024-01-10T03:28:45;98204.50;;;-6.54;100.00
498;BME280;39559;48.630;9.162;2024-01-10T03:31:12;98199.53;;;-6.51;100.00
498;BME280;39559;48.630;9.162;2024-01-10T03:33:37;98196.00;;;-6.57;100.00
498;BME280;39559;48.630;9.162;2024-01-10T03:36:18;98197.59;;;-6.59;100.00
498;BME280;39559;48.630;9.162;2024-01-10T03:38:44;98201.06;;;-6.57;100.00
498;BME280;39559;48.630;9.162;2024-01-10T03:41:17;98201.84;;;-6.58;100.00
498;BME280;39559;48.630;9.162;2024-01-10T03:44:52;98202.56;;;-6.62;100.00
498;BME280;39559;48.630;9.162;2024-01-10T03:47:17;98199.22;;;-6.61;100.00
498;BME280;39559;48.630;9.162;2024-01-10T03:49:43;98198.41;;;-6.60;100.00
498;BME280;39559;48.630;9.162;2024-01-10T03:52:09;98193.09;;;-6.67;100.00
498;BME280;39559;48.630;9.162;2024-01-10T03:54:34;98200.50;;;-6.72;100.00
498;BME280;39559;48.630;9.162;2024-01-10T03:57:00;98202.25;;;-6.69;100.00
498;BME280;39559;48.630;9.162;2024-01-10T03:59:25;98200.44;;;-6.73;100.00
498;BME280;39559;48.630;9.162;2024-01-10T04:01:51;98198.16;;;-6.67;100.00
498;BME280;39559;48.630;9.162;2024-01-10T04:04:16;98201.00;;;-6.58;100.00
498;BME280;39559;48.630;9.162;2024-01-10T04:08:56;98213.78;;;-6.53;100.00
498;BME280;39559;48.630;9.162;2024-01-10T04:11:22;98213.09;;;-6.49;100.00
498;BME280;39559;48.630;9.162;2024-01-10T04:13:47;98209.88;;;-6.45;100.00
498;BME280;39559;48.630;9.162;2024-01-10T04:16:13;98216.72;;;-6.43;100.00
498;BME280;39559;48.630;9.162;2024-01-10T04:18:38;98211.66;;;-6.43;100.00
498;BME280;39559;48.630;9.162;2024-01-10T04:21:04;98213.97;;;-6.49;100.00
498;BME280;39559;48.630;9.162;2024-01-10T04:23:29;98211.59;;;-6.44;100.00
498;BME280;39559;48.630;9.162;2024-01-10T04:25:56;98206.44;;;-6.47;100.00
498;BME280;39559;48.630;9.162;2024-01-10T04:28:22;98211.38;;;-6.50;100.00
498;BME280;39559;48.630;9.162;2024-01-10T04:33:00;98214.69;;;-6.51;100.00
498;BME280;39559;48.630;9.162;2024-01-10T04:35:25;98218.25;;;-6.46;100.00
498;BME280;39559;48.630;9.162;2024-01-10T04:37:51;98208.41;;;-6.39;100.00
498;BME280;39559;48.630;9.162;2024-01-10T04:40:16;98206.72;;;-6.40;100.00
498;BME280;39559;48.630;9.162;2024-01-10T04:42:42;98201.41;;;-6.47;100.00
498;BME280;39559;48.630;9.162;2024-01-10T04:45:08;98203.09;;;-6.46;100.00
498;BME280;39559;48.630;9.162;2024-01-10T04:47:34;98203.16;;;-6.45;100.00
498;BME280;39559;48.630;9.162;2024-01-10T04:50:00;98208.03;;;-6.49;100.00
498;BME280;39559;48.630;9.162;2024-01-10T04:52:25;98201.53;;;-6.43;100.00
498;BME280;39559;48.630;9.162;2024-01-10T04:57:04;98205.16;;;-6.36;100.00
498;BME280;39559;48.630;9.162;2024-01-10T04:59:30;98211.53;;;-6.46;100.00
498;BME280;39559;48.630;9.162;2024-01-10T05:01:55;98205.63;;;-6.46;100.00
498;BME280;39559;48.630;9.162;2024-01-10T05:04:21;98203.22;;;-6.43;100.00
498;BME280;39559;48.630;9.162;2024-01-10T05:06:47;98213.16;;;-6.48;100.00
498;BME280;39559;48.630;9.162;2024-01-10T05:09:12;98217.28;;;-6.50;100.00
498;BME280;39559;48.630;9.162;2024-01-10T05:11:38;98217.41;;;-6.47;100.00
498;BME280;39559;48.630;9.162;2024-01-10T05:14:03;98215.09;;;-6.41;100.00
498;BME280;39559;48.630;9.162;2024-01-10T05:16:29;98204.91;;;-6.42;100.00
498;BME280;39559;48.630;9.162;2024-01-10T05:21:08;98210.69;;;-6.46;100.00
498;BME280;39559;48.630;9.162;2024-01-10T05:23:34;98215.63;;;-6.49;100.00
498;BME280;39559;48.630;9.162;2024-01-10T05:26:01;98210.19;;;-6.60;100.00
498;BME280;39559;48.630;9.162;2024-01-10T05:28:26;98212.72;;;-6.60;100.00
498;BME280;39559;48.630;9.162;2024-01-10T05:30:52;98201.53;;;-6.67;100.00
498;BME280;39559;48.630;9.162;2024-01-10T05:33:19;98214.03;;;-6.70;100.00
498;BME280;39559;48.630;9.162;2024-01-10T05:35:45;98214.25;;;-6.86;100.00
498;BME280;39559;48.630;9.162;2024-01-10T05:38:11;98216.09;;;-6.82;100.00
498;BME280;39559;48.630;9.162;2024-01-10T05:40:36;98215.53;;;-6.75;100.00
498;BME280;39559;48.630;9.162;2024-01-10T05:45:13;98221.47;;;-7.39;100.00
498;BME280;39559;48.630;9.162;2024-01-10T05:47:38;98212.47;;;-7.11;100.00
498;BME280;39559;48.630;9.162;2024-01-10T05:50:04;98217.56;;;-7.32;100.00
498;BME280;39559;48.630;9.162;2024-01-10T05:52:33;98224.13;;;-7.57;100.00
498;BME280;39559;48.630;9.162;2024-01-10T05:54:59;98223.38;;;-7.34;100.00
498;BME280;39559;48.630;9.162;2024-01-10T05:57:27;98221.53;;;-7.38;100.00
498;BME280;39559;48.630;9.162;2024-01-10T05:59:53;98225.84;;;-7.35;100.00
498;BME280;39559;48.630;9.162;2024-01-10T06:02:23;98232.00;;;-7.28;100.00
498;BME280;39559;48.630;9.162;2024-01-10T06:04:50;98225.13;;;-7.32;100.00
498;BME280;39559;48.630;9.162;2024-01-10T06:09:17;98223.56;;;-7.50;100.00
498;BME280;39559;48.630;9.162;2024-01-10T06:11:47;98211.34;;;-7.62;100.00
498;BME280;39559;48.630;9.162;2024-01-10T06:14:13;98213.59;;;-7.68;100.00
498;BME280;39559;48.630;9.162;2024-01-10T06:16:39;98224.25;;;-7.54;100.00
498;BME280;39559;48.630;9.162;2024-01-10T06:19:05;98214.72;;;-7.61;100.00
498;BME280;39559;48.630;9.162;2024-01-10T06:21:31;98223.22;;;-7.80;100.00
498;BME280;39559;48.630;9.162;2024-01-10T06:23:57;98221.41;;;-7.83;100.00
498;BME280;39559;48.630;9.162;2024-01-10T06:26:22;98232.47;;;-8.00;100.00
498;BME280;39559;48.630;9.162;2024-01-10T06:28:48;98233.75;;;-7.89;100.00
498;BME280;39559;48.630;9.162;2024-01-10T06:33:21;98237.50;;;-8.00;100.00
498;BME280;39559;48.630;9.162;2024-01-10T06:35:46;98243.16;;;-7.85;100.00
498;BME280;39559;48.630;9.162;2024-01-10T06:38:12;98240.41;;;-7.91;100.00
498;BME280;39559;48.630;9.162;2024-01-10T06:40:37;98238.06;;;-7.86;100.00
498;BME280;39559;48.630;9.162;2024-01-10T06:43:06;98238.13;;;-7.85;100.00
498;BME280;39559;48.630;9.162;2024-01-10T06:45:34;98243.50;;;-7.97;100.00
498;BME280;39559;48.630;9.162;2024-01-10T06:47:59;98233.31;;;-8.00;100.00
498;BME280;39559;48.630;9.162;2024-01-10T06:50:25;98239.94;;;-8.21;100.00
498;BME280;39559;48.630;9.162;2024-01-10T06:52:51;98245.75;;;-8.22;100.00
498;BME280;39559;48.630;9.162;2024-01-10T06:57:25;98241.75;;;-8.58;100.00
498;BME280;39559;48.630;9.162;2024-01-10T06:59:52;98243.84;;;-8.67;100.00
498;BME280;39559;48.630;9.162;2024-01-10T07:02:17;98246.59;;;-8.80;100.00
498;BME280;39559;48.630;9.162;2024-01-10T07:04:43;98254.53;;;-8.91;100.00
498;BME280;39559;48.630;9.162;2024-01-10T07:07:08;98257.09;;;-8.71;100.00
498;BME280;39559;48.630;9.162;2024-01-10T07:09:34;98266.22;;;-8.73;100.00
498;BME280;39559;48.630;9.162;2024-01-10T07:11:59;98266.38;;;-8.70;100.00
498;BME280;39559;48.630;9.162;2024-01-10T07:14:25;98272.22;;;-8.52;100.00
498;BME280;39559;48.630;9.162;2024-01-10T07:16:50;98278.19;;;-8.30;100.00
498;BME280;39559;48.630;9.162;2024-01-10T07:21:29;98269.66;;;-8.14;100.00
498;BME280;39559;48.630;9.162;2024-01-10T07:23:55;98265.31;;;-8.17;100.00
498;BME280;39559;48.630;9.162;2024-01-10T07:26:20;98266.00;;;-8.21;100.00
498;BME280;39559;48.630;9.162;2024-01-10T07:28:46;98267.97;;;-8.14;100.00
498;BME280;39559;48.630;9.162;2024-01-10T07:31:11;98268.38;;;-8.04;100.00
498;BME280;39559;48.630;9.162;2024-01-10T07:33:37;98276.28;;;-8.16;100.00
498;BME280;39559;48.630;9.162;2024-01-10T07:36:03;98275.34;;;-7.99;100.00
498;BME280;39559;48.630;9.162;2024-01-10T07:38:29;98279.00;;;-7.92;100.00
498;BME280;39559;48.630;9.162;2024-01-10T07:40:54;98273.34;;;-7.86;100.00
498;BME280;39559;48.630;9.162;2024-01-10T07:45:34;98277.84;;;-7.79;100.00
498;BME280;39559;48.630;9.162;2024-01-10T07:47:59;98277.53;;;-7.67;100.00
498;BME280;39559;48.630;9.162;2024-01-10T07:50:25;98280.16;;;-7.64;100.00
498;BME280;39559;48.630;9.162;2024-01-10T07:52:53;98284.13;;;-7.69;100.00
498;BME280;39559;48.630;9.162;2024-01-10T07:55:18;98292.03;;;-7.62;100.00
498;BME280;39559;48.630;9.162;2024-01-10T07:57:44;98291.75;;;-7.48;100.00
498;BME280;39559;48.630;9.162;2024-01-10T08:00:10;98297.03;;;-7.42;100.00
498;BME280;39559;48.630;9.162;2024-01-10T08:02:39;98297.25;;;-7.38;100.00
498;BME280;39559;48.630;9.162;2024-01-10T08:05:06;98295.88;;;-7.50;100.00
498;BME280;39559;48.630;9.162;2024-01-10T08:09:38;98294.13;;;-7.52;100.00
498;BME280;39559;48.630;9.162;2024-01-10T08:12:04;98296.56;;;-7.55;100.00
498;BME280;39559;48.630;9.162;2024-01-10T08:14:29;98302.25;;;-7.59;100.00
498;BME280;39559;48.630;9.162;2024-01-10T08:16:55;98303.69;;;-7.44;100.00
498;BME280;39559;48.630;9.162;2024-01-10T08:19:26;98302.59;;;-7.30;100.00
498;BME280;39559;48.630;9.162;2024-01-10T08:21:53;98298.19;;;-7.15;100.00
498;BME280;39559;48.630;9.162;2024-01-10T08:24:19;98303.66;;;-7.04;100.00
498;BME280;39559;48.630;9.162;2024-01-10T08:26:48;98307.72;;;-7.07;100.00
498;BME280;39559;48.630;9.162;2024-01-10T08:29:20;98305.34;;;-7.03;100.00
498;BME280;39559;48.630;9.162;2024-01-10T08:33:42;98324.03;;;-7.20;100.00
498;BME280;39559;48.630;9.162;2024-01-10T08:36:08;98318.09;;;-7.21;100.00
498;BME280;39559;48.630;9.162;2024-01-10T08:38:35;98324.25;;;-7.35;100.00
498;BME280;39559;48.630;9.162;2024-01-10T08:41:01;98324.91;;;-7.39;100.00
498;BME280;39559;48.630;9.162;2024-01-10T08:43:29;98320.38;;;-7.27;100.00
498;BME280;39559;48.630;9.162;2024-01-10T08:45:54;98325.66;;;-7.21;100.00
498;BME280;39559;48.630;9.162;2024-01-10T08:48:20;98319.63;;;-7.24;100.00
498;BME280;39559;48.630;9.162;2024-01-10T08:50:45;98325.91;;;-7.36;100.00
498;BME280;39559;48.630;9.162;2024-01-10T08:53:11;98326.28;;;-7.26;100.00
498;BME280;39559;48.630;9.162;2024-01-10T08:57:46;98319.34;;;-6.90;100.00
498;BME280;39559;48.630;9.162;2024-01-10T09:00:15;98327.19;;;-6.61;100.00
498;BME280;39559;48.630;9.162;2024-01-10T09:02:40;98329.31;;;-6.49;100.00
498;BME280;39559;48.630;9.162;2024-01-10T09:05:06;98322.34;;;-6.78;100.00
498;BME280;39559;48.630;9.162;2024-01-10T09:07:36;98322.34;;;-6.55;100.00
498;BME280;39559;48.630;9.162;2024-01-10T09:10:02;98327.59;;;-6.50;100.00
498;BME280;39559;48.630;9.162;2024-01-10T09:12:31;98330.03;;;-6.31;100.00
498;BME280;39559;48.630;9.162;2024-01-10T09:14:56;98328.50;;;-6.26;100.00
498;BME280;39559;48.630;9.162;2024-01-10T09:17:22;98330.06;;;-6.07;100.00
498;BME280;39559;48.630;9.162;2024-01-10T09:21:51;98335.38;;;-5.75;100.00
498;BME280;39559;48.630;9.162;2024-01-10T09:24:17;98328.34;;;-5.34;100.00
498;BME280;39559;48.630;9.162;2024-01-10T09:26:43;98326.13;;;-4.72;100.00
498;BME280;39559;48.630;9.162;2024-01-10T09:29:09;98322.22;;;-4.33;100.00
498;BME280;39559;48.630;9.162;2024-01-10T09:31:35;98320.81;;;-3.95;100.00
498;BME280;39559;48.630;9.162;2024-01-10T09:34:00;98325.66;;;-3.40;100.00
498;BME280;39559;48.630;9.162;2024-01-10T09:36:25;98332.00;;;-3.24;100.00
498;BME280;39559;48.630;9.162;2024-01-10T09:38:51;98318.19;;;-2.66;100.00
498;BME280;39559;48.630;9.162;2024-01-10T09:41:18;98323.38;;;-2.23;100.00
498;BME280;39559;48.630;9.162;2024-01-10T09:45:57;98321.22;;;-2.05;100.00
498;BME280;39559;48.630;9.162;2024-01-10T09:48:24;98321.31;;;-2.00;100.00
498;BME280;39559;48.630;9.162;2024-01-10T09:50:51;98314.28;;;-2.12;100.00
498;BME280;39559;48.630;9.162;2024-01-10T09:53:24;98316.44;;;-1.91;100.00
498;BME280;39559;48.630;9.162;2024-01-10T09:55:52;98317.53;;;-1.78;100.00
498;BME280;39559;48.630;9.162;2024-01-10T09:58:18;98318.69;;;-2.05;100.00
498;BME280;39559;48.630;9.162;2024-01-10T10:00:43;98321.53;;;-1.91;100.00
498;BME280;39559;48.630;9.162;2024-01-10T10:03:10;98317.84;;;-1.61;100.00
498;BME280;39559;48.630;9.162;2024-01-10T10:05:38;98314.91;;;-1.81;100.00
498;BME280;39559;48.630;9.162;2024-01-10T10:09:59;98305.50;;;-0.89;100.00
498;BME280;39559;48.630;9.162;2024-01-10T10:12:44;98303.91;;;-0.83;100.00
498;BME280;39559;48.630;9.162;2024-01-10T10:15:12;98308.81;;;-1.44;100.00
498;BME280;39559;48.630;9.162;2024-01-10T10:17:39;98308.97;;;-2.23;100.00
498;BME280;39559;48.630;9.162;2024-01-10T10:20:24;98311.16;;;-2.40;100.00
498;BME280;39559;48.630;9.162;2024-01-10T10:23:01;98301.88;;;-2.38;100.00
498;BME280;39559;48.630;9.162;2024-01-10T10:25:34;98304.47;;;-2.73;100.00
498;BME280;39559;48.630;9.162;2024-01-10T10:28:02;98302.88;;;-2.69;100.00
498;BME280;39559;48.630;9.162;2024-01-10T10:30:31;98307.00;;;-3.09;100.00
498;BME280;39559;48.630;9.162;2024-01-10T10:34:03;98303.94;;;-2.96;100.00
498;BME280;39559;48.630;9.162;2024-01-10T10:36:32;98310.69;;;-3.30;100.00
498;BME280;39559;48.630;9.162;2024-01-10T10:39:00;98307.19;;;-3.01;100.00
498;BME280;39559;48.630;9.162;2024-01-10T10:41:31;98300.38;;;-3.02;100.00
498;BME280;39559;48.630;9.162;2024-01-10T10:43:58;98293.63;;;-2.64;100.00
498;BME280;39559;48.630;9.162;2024-01-10T10:46:27;98294.28;;;-2.74;100.00
498;BME280;39559;48.630;9.162;2024-01-10T10:48:53;98295.97;;;-2.75;100.00
498;BME280;39559;48.630;9.162;2024-01-10T10:51:27;98301.94;;;-2.35;100.00
498;BME280;39559;48.630;9.162;2024-01-10T10:53:54;98293.47;;;-1.48;100.00
498;BME280;39559;48.630;9.162;2024-01-10T10:58:08;98290.66;;;-1.13;100.00
498;BME280;39559;48.630;9.162;2024-01-10T11:00:34;98290.53;;;-1.21;100.00
498;BME280;39559;48.630;9.162;2024-01-10T11:03:02;98287.19;;;-1.19;100.00
498;BME280;39559;48.630;9.162;2024-01-10T11:05:29;98287.59;;;-1.44;100.00
498;BME280;39559;48.630;9.162;2024-01-10T11:07:54;98289.13;;;-1.54;100.00
498;BME280;39559;48.630;9.162;2024-01-10T11:10:29;98290.16;;;-1.88;100.00
498;BME280;39559;48.630;9.162;2024-01-10T11:22:19;98293.19;;;-1.62;100.00
498;BME280;39559;48.630;9.162;2024-01-10T11:24:49;98289.56;;;-1.75;100.00
498;BME280;39559;48.630;9.162;2024-01-10T11:27:15;98287.91;;;-1.73;100.00
498;BME280;39559;48.630;9.162;2024-01-10T11:29:42;98299.47;;;-1.90;100.00
498;BME280;39559;48.630;9.162;2024-01-10T11:32:16;98289.41;;;-1.37;100.00
498;BME280;39559;48.630;9.162;2024-01-10T11:34:56;98295.88;;;-1.06;100.00
498;BME280;39559;48.630;9.162;2024-01-10T11:37:48;98282.56;;;-0.89;100.00
498;BME280;39559;48.630;9.162;2024-01-10T11:40:45;98283.16;;;-0.51;100.00
498;BME280;39559;48.630;9.162;2024-01-10T11:43:12;98273.16;;;-0.34;100.00
498;BME280;39559;48.630;9.162;2024-01-10T11:46:16;98267.25;;;0.44;100.00
498;BME280;39559;48.630;9.162;2024-01-10T11:48:43;98267.66;;;0.82;100.00
498;BME280;39559;48.630;9.162;2024-01-10T11:51:09;98277.31;;;1.19;100.00
498;BME280;39559;48.630;9.162;2024-01-10T11:53:42;98273.44;;;0.64;100.00
498;BME280;39559;48.630;9.162;2024-01-10T11:56:14;98273.72;;;0.09;100.00
498;BME280;39559;48.630;9.162;2024-01-10T11:59:16;98266.00;;;0.90;100.00
498;BME280;39559;48.630;9.162;2024-01-10T12:01:44;98272.63;;;1.89;100.00
498;BME280;39559;48.630;9.162;2024-01-10T12:04:09;98264.91;;;1.80;100.00
498;BME280;39559;48.630;9.162;2024-01-10T12:06:35;98267.22;;;1.42;99.77
498;BME280;39559;48.630;9.162;2024-01-10T12:10:18;98266.28;;;1.27;100.00
498;BME280;39559;48.630;9.162;2024-01-10T12:12:44;98264.91;;;0.62;100.00
498;BME280;39559;48.630;9.162;2024-01-10T12:15:11;98257.00;;;1.40;100.00
498;BME280;39559;48.630;9.162;2024-01-10T12:17:36;98256.38;;;1.89;100.00
498;BME280;39559;48.630;9.162;2024-01-10T12:20:02;98259.97;;;2.36;99.74
498;BME280;39559;48.630;9.162;2024-01-10T12:22:27;98255.78;;;3.25;94.64
498;BME280;39559;48.630;9.162;2024-01-10T12:24:53;98252.38;;;3.00;87.89
498;BME280;39559;48.630;9.162;2024-01-10T12:27:21;98253.97;;;2.30;90.21
498;BME280;39559;48.630;9.162;2024-01-10T12:29:51;98253.13;;;2.24;93.46
498;BME280;39559;48.630;9.162;2024-01-10T12:34:22;98254.94;;;0.90;100.00
498;BME280;39559;48.630;9.162;2024-01-10T12:36:48;98249.72;;;0.79;100.00
498;BME280;39559;48.630;9.162;2024-01-10T12:39:15;98243.03;;;0.98;100.00
498;BME280;39559;48.630;9.162;2024-01-10T12:41:41;98239.81;;;1.19;100.00
498;BME280;39559;48.630;9.162;2024-01-10T12:44:06;98247.53;;;1.30;100.00
498;BME280;39559;48.630;9.162;2024-01-10T12:46:32;98246.16;;;1.92;100.00
498;BME280;39559;48.630;9.162;2024-01-10T12:49:06;98239.47;;;2.28;98.84
498;BME280;39559;48.630;9.162;2024-01-10T12:51:33;98240.31;;;2.22;94.93
498;BME280;39559;48.630;9.162;2024-01-10T12:54:01;98239.34;;;1.96;95.70
498;BME280;39559;48.630;9.162;2024-01-10T12:58:27;98242.63;;;1.65;100.00
498;BME280;39559;48.630;9.162;2024-01-10T13:00:52;98240.16;;;1.82;100.00
498;BME280;39559;48.630;9.162;2024-01-10T13:03:18;98234.31;;;2.22;100.00
498;BME280;39559;48.630;9.162;2024-01-10T13:05:44;98235.25;;;3.33;100.00
498;BME280;39559;48.630;9.162;2024-01-10T13:08:09;98239.53;;;3.13;97.31
498;BME280;39559;48.630;9.162;2024-01-10T13:10:37;98230.06;;;3.52;96.36
498;BME280;39559;48.630;9.162;2024-01-10T13:13:03;98230.94;;;3.38;94.80
498;BME280;39559;48.630;9.162;2024-01-10T13:15:28;98239.88;;;1.30;99.11
498;BME280;39559;48.630;9.162;2024-01-10T13:17:54;98236.34;;;1.15;100.00
498;BME280;39559;48.630;9.162;2024-01-10T13:22:29;98237.19;;;1.11;100.00
498;BME280;39559;48.630;9.162;2024-01-10T13:24:55;98249.59;;;-0.14;100.00
498;BME280;39559;48.630;9.162;2024-01-10T13:27:21;98244.75;;;0.06;100.00
498;BME280;39559;48.630;9.162;2024-01-10T13:29:46;98244.38;;;0.53;100.00
498;BME280;39559;48.630;9.162;2024-01-10T13:32:11;98248.69;;;0.62;100.00
498;BME280;39559;48.630;9.162;2024-01-10T13:34:37;98242.97;;;0.89;100.00
498;BME280;39559;48.630;9.162;2024-01-10T13:37:02;98240.44;;;0.90;100.00
498;BME280;39559;48.630;9.162;2024-01-10T13:39:28;98241.50;;;1.17;100.00
498;BME280;39559;48.630;9.162;2024-01-10T13:41:54;98232.97;;;1.21;100.00
498;BME280;39559;48.630;9.162;2024-01-10T13:46:32;98233.38;;;2.00;100.00
498;BME280;39559;48.630;9.162;2024-01-10T13:48:59;98227.50;;;2.27;100.00
498;BME280;39559;48.630;9.162;2024-01-10T13:51:26;98241.00;;;1.81;100.00
498;BME280;39559;48.630;9.162;2024-01-10T13:53:52;98242.81;;;2.04;100.00
498;BME280;39559;48.630;9.162;2024-01-10T13:56:17;98231.72;;;2.11;100.00
498;BME280;39559;48.630;9.162;2024-01-10T13:58:43;98242.78;;;1.98;100.00
498;BME280;39559;48.630;9.162;2024-01-10T14:01:09;98235.34;;;0.93;100.00
498;BME280;39559;48.630;9.162;2024-01-10T14:03:34;98227.41;;;1.96;100.00
498;BME280;39559;48.630;9.162;2024-01-10T14:06:00;98235.00;;;1.76;100.00
498;BME280;39559;48.630;9.162;2024-01-10T14:10:35;98249.31;;;1.43;100.00
498;BME280;39559;48.630;9.162;2024-01-10T14:13:00;98240.56;;;1.06;100.00
498;BME280;39559;48.630;9.162;2024-01-10T14:15:25;98250.81;;;1.12;100.00
498;BME280;39559;48.630;9.162;2024-01-10T14:17:51;98252.59;;;1.21;100.00
498;BME280;39559;48.630;9.162;2024-01-10T14:20:16;98241.28;;;0.88;100.00
498;BME280;39559;48.630;9.162;2024-01-10T14:22:42;98248.47;;;0.37;100.00
498;BME280;39559;48.630;9.162;2024-01-10T14:25:08;98250.91;;;0.26;100.00
498;BME280;39559;48.630;9.162;2024-01-10T14:27:35;98255.88;;;0.14;100.00
498;BME280;39559;48.630;9.162;2024-01-10T14:30:00;98249.13;;;0.17;100.00